Terminal Aerodrome Forecast
Issued by NWS Des Moines, IA

Home | Current Version | Previous Version | Text Only | Print | Product List | Glossary On
Versions: 1 2 3 4 5 6 7 8 9 10 11 12 13 14 15 16 17 18 19 20 21 22 23 24 25 26 27 28 29 30 31 32 33 34 35 36 37 38 39
000
FTUS43 KDMX 230859 AAA
TAFDSM
TAF AMD
KDSM 230859Z 2309/2406 VRB06KT 3SM BR VCTS SCT005 BKN020CB OVC100
      TEMPO 2309/2313 1/2SM TSRA FG OVC002CB
     FM231500 14010KT P6SM SCT070 BKN200
     FM231900 14012G17KT P6SM BKN200
     FM240000 15009KT P6SM BKN120=

USA.gov is the U.S. government's official web portal to all federal, state and local government web resources and services.